Terminal Aerodrome Forecast
Issued by NWS Pendleton, OR

Home | Current Version | Previous Version | Text Only | Print | Product List | Glossary On
Versions: 1 2 3 4 5 6 7 8 9 10 11 12 13 14 15 16 17 18 19 20 21 22 23 24 25
044
FTUS46 KPDT 201139
TAFPDT
TAF
KPDT 201139Z 2012/2112 08009KT P6SM -SHRA SCT045 OVC070
     FM201600 20011KT P6SM -SHRA SCT045 OVC070
     FM202200 23018G26KT P6SM SCT045 BKN080
     FM210300 22010KT P6SM BKN070
     FM211000 10007KT P6SM -SHRA SCT040 BKN060=

USA.gov is the U.S. government's official web portal to all federal, state and local government web resources and services.